createdAt,value
2022-08-22T00:00:12.061Z,4.35
2022-08-22T00:03:07.725Z,11.07
2022-08-22T00:03:16.249Z,3.80
2022-08-22T00:05:47.825Z,3.33
2022-08-22T00:08:23.554Z,4.72
2022-08-22T00:10:55.047Z,6.43
2022-08-22T00:13:34.407Z,3.25
2022-08-22T00:16:13.276Z,3.05
2022-08-22T00:19:01.415Z,4.75
2022-08-22T00:21:35.539Z,3.70
2022-08-22T00:24:26.904Z,4.90
2022-08-22T00:27:07.901Z,4.38
2022-08-22T00:30:03.035Z,3.90
2022-08-22T00:32:35.389Z,5.13
2022-08-22T00:35:25.520Z,3.40
2022-08-22T00:38:08.180Z,2.72
2022-08-22T00:40:56.593Z,5.00
2022-08-22T00:43:45.101Z,3.35
2022-08-22T00:46:54.090Z,3.50
2022-08-22T00:49:30.181Z,4.13
2022-08-22T00:52:16.313Z,3.63
2022-08-22T00:54:50.723Z,2.97
2022-08-22T00:57:23.572Z,3.40
2022-08-22T01:00:22.490Z,3.90
2022-08-22T01:03:34.389Z,3.33
2022-08-22T01:06:18.942Z,4.25
2022-08-22T01:08:54.548Z,2.67
2022-08-22T01:11:34.125Z,4.50
2022-08-22T01:14:34.738Z,2.97
2022-08-22T01:17:19.028Z,4.25
2022-08-22T01:19:57.799Z,3.50
2022-08-22T01:22:55.484Z,2.42
2022-08-22T01:25:50.890Z,2.30
2022-08-22T01:28:17.782Z,2.88
2022-08-22T01:31:21.448Z,3.55
2022-08-22T01:34:31.684Z,3.58
2022-08-22T01:37:24.772Z,3.05
2022-08-22T01:40:25.406Z,3.65
2022-08-22T01:44:00.131Z,3.35
2022-08-22T01:47:01.479Z,3.25
2022-08-22T01:49:34.830Z,2.92
2022-08-22T01:52:13.347Z,2.17
2022-08-22T01:54:46.543Z,2.75
2022-08-22T01:57:14.168Z,2.97
2022-08-22T01:59:50.357Z,3.33
2022-08-22T02:02:30.205Z,4.32
2022-08-22T02:05:26.008Z,3.60
2022-08-22T02:07:57.843Z,2.67
2022-08-22T02:11:02.400Z,3.35
2022-08-22T02:13:32.113Z,3.65
2022-08-22T02:16:24.842Z,4.15
2022-08-22T02:18:59.797Z,2.38
2022-08-22T02:21:45.149Z,2.92
2022-08-22T02:24:24.523Z,5.40
2022-08-22T02:27:14.301Z,3.42
2022-08-22T02:29:47.027Z,3.05
2022-08-22T02:32:22.184Z,3.90
2022-08-22T02:35:20.213Z,2.35
2022-08-22T02:38:24.678Z,3.80
2022-08-22T02:41:06.892Z,4.78
2022-08-22T02:43:39.461Z,3.58
2022-08-22T02:46:17.617Z,3.10
2022-08-22T02:49:09.495Z,3.40
2022-08-22T02:51:53.749Z,3.08
2022-08-22T02:54:26.455Z,2.22
2022-08-22T02:57:06.936Z,5.07
2022-08-22T03:00:27.775Z,2.55
2022-08-22T03:02:59.685Z,3.70
2022-08-22T03:05:38.402Z,4.20
2022-08-22T03:08:29.226Z,2.47
2022-08-22T03:11:15.822Z,2.60
2022-08-22T03:13:52.380Z,2.97
2022-08-22T03:16:33.253Z,3.33
2022-08-22T03:19:20.363Z,4.57
2022-08-22T03:22:07.366Z,3.55
2022-08-22T03:25:04.873Z,4.38
2022-08-22T03:27:41.266Z,4.35
2022-08-22T03:30:28.160Z,2.33
2022-08-22T03:33:13.129Z,4.00
2022-08-22T03:35:57.816Z,3.70
2022-08-22T03:42:36.026Z,3.00
2022-08-22T03:45:32.997Z,4.35
2022-08-22T03:48:34.075Z,3.60
2022-08-22T03:51:19.321Z,3.53
2022-08-22T03:54:14.905Z,2.42
2022-08-22T03:57:17.282Z,2.97
2022-08-22T04:00:01.941Z,4.45
2022-08-22T04:02:47.415Z,3.42
2022-08-22T04:05:29.260Z,2.78
2022-08-22T04:07:56.043Z,4.28
2022-08-22T04:10:35.845Z,3.00
2022-08-22T04:13:35.550Z,2.45
2022-08-22T04:16:36.893Z,2.50
2022-08-22T04:19:18.806Z,2.20
2022-08-22T04:22:18.213Z,3.42
2022-08-22T04:25:08.491Z,3.22
2022-08-22T04:28:16.720Z,2.72
2022-08-22T04:31:17.514Z,2.55
2022-08-22T04:34:32.007Z,4.05
2022-08-22T04:37:06.897Z,4.85
2022-08-22T04:39:42.130Z,3.25
2022-08-22T04:45:08.219Z,2.45
2022-08-22T04:47:57.289Z,4.15
2022-08-22T04:51:06.352Z,3.38
2022-08-22T04:53:52.539Z,3.20
2022-08-22T04:56:50.015Z,5.28
2022-08-22T04:59:18.448Z,3.03
2022-08-22T05:02:06.226Z,2.67
2022-08-22T05:04:46.105Z,3.55
2022-08-22T05:07:19.587Z,3.47
2022-08-22T05:09:56.443Z,3.63
2022-08-22T05:12:31.785Z,4.93
2022-08-22T05:15:07.490Z,8.48
2022-08-22T05:17:36.980Z,9.65
2022-08-22T05:20:09.516Z,10.30
2022-08-22T05:22:42.039Z,7.75
2022-08-22T05:25:17.594Z,12.98
2022-08-22T05:27:47.525Z,10.10
2022-08-22T05:30:21.067Z,7.97
2022-08-22T05:33:09.119Z,15.00
2022-08-22T05:35:47.256Z,9.52
2022-08-22T05:38:20.667Z,7.25
2022-08-22T05:40:53.480Z,6.90
2022-08-22T05:43:21.371Z,5.40
2022-08-22T05:45:49.039Z,8.25
2022-08-22T05:48:19.050Z,7.32
2022-08-22T05:53:30.707Z,7.95
2022-08-22T05:56:14.134Z,7.60
2022-08-22T06:01:37.032Z,8.50
2022-08-22T06:04:13.811Z,7.97
2022-08-22T06:06:58.546Z,10.35
2022-08-22T06:10:08.945Z,9.63
2022-08-22T06:12:55.979Z,9.23
2022-08-22T06:15:32.400Z,14.17
2022-08-22T06:18:06.386Z,11.05
2022-08-22T06:20:43.414Z,16.95
2022-08-22T06:23:14.887Z,18.90
2022-08-22T06:25:46.985Z,29.05
2022-08-22T06:28:20.145Z,48.75
2022-08-22T06:30:47.968Z,37.80
2022-08-22T06:33:19.866Z,38.00
2022-08-22T06:36:11.607Z,25.33
2022-08-22T06:39:14.431Z,20.92
2022-08-22T06:41:52.721Z,25.42
2022-08-22T06:44:25.927Z,12.80
2022-08-22T06:46:55.342Z,13.77
2022-08-22T06:49:23.746Z,19.23
2022-08-22T06:51:51.422Z,11.27
2022-08-22T06:54:22.375Z,12.27
2022-08-22T06:56:51.523Z,8.88
2022-08-22T07:02:41.474Z,7.95
2022-08-22T07:05:21.519Z,7.22
2022-08-22T07:07:49.976Z,7.03
2022-08-22T07:10:17.903Z,8.73
2022-08-22T07:12:47.684Z,7.18
2022-08-22T07:15:37.396Z,9.60
2022-08-22T07:18:16.167Z,6.95
2022-08-22T07:20:47.492Z,8.32
2022-08-22T07:26:20.718Z,8.38
2022-08-22T07:28:58.394Z,7.45
2022-08-22T07:31:34.853Z,11.02
2022-08-22T07:34:40.593Z,9.65
2022-08-22T07:37:29.340Z,9.93
2022-08-22T07:40:30.104Z,6.40
2022-08-22T07:43:24.895Z,9.27
2022-08-22T07:46:01.484Z,10.95
2022-08-22T07:48:59.319Z,9.52
2022-08-22T07:51:36.811Z,11.32
2022-08-22T07:54:09.256Z,14.93
2022-08-22T07:56:42.261Z,9.43
2022-08-22T07:59:17.175Z,10.77
2022-08-22T08:01:47.296Z,7.72
2022-08-22T08:04:18.517Z,12.10
2022-08-22T08:09:19.674Z,8.18
2022-08-22T08:11:47.747Z,8.25
2022-08-22T08:14:15.459Z,9.38
2022-08-22T08:17:07.649Z,9.73
2022-08-22T08:19:36.149Z,6.57
2022-08-22T08:22:04.768Z,6.15
2022-08-22T08:24:40.623Z,5.40
2022-08-22T08:27:33.389Z,10.40
2022-08-22T08:30:29.495Z,8.50
2022-08-22T08:33:24.318Z,6.95
2022-08-22T08:36:02.532Z,15.10
2022-08-22T08:38:33.355Z,9.25
2022-08-22T08:41:25.061Z,5.38
2022-08-22T08:44:27.426Z,9.88
2022-08-22T08:47:31.841Z,12.43
2022-08-22T08:50:21.417Z,5.90
2022-08-22T08:55:47.126Z,10.35
2022-08-22T08:58:52.482Z,7.03
2022-08-22T09:01:54.342Z,7.97
2022-08-22T09:04:27.777Z,7.05
2022-08-22T09:07:23.801Z,10.13
2022-08-22T09:10:16.558Z,8.43
2022-08-22T09:13:00.626Z,6.85
2022-08-22T09:15:42.195Z,8.40
2022-08-22T09:18:31.172Z,7.65
2022-08-22T09:21:30.429Z,10.95
2022-08-22T09:24:05.031Z,4.50
2022-08-22T09:26:48.284Z,5.88
2022-08-22T09:33:10.184Z,7.05
2022-08-22T09:36:01.050Z,6.65
2022-08-22T09:39:03.389Z,8.70
2022-08-22T09:41:51.692Z,6.80
2022-08-22T09:44:53.943Z,5.47
2022-08-22T09:48:07.070Z,4.25
2022-08-22T09:51:04.650Z,6.47
2022-08-22T09:53:49.973Z,13.75
2022-08-22T09:56:31.002Z,5.78
2022-08-22T09:59:12.227Z,4.72
2022-08-22T10:01:58.101Z,5.63
2022-08-22T10:04:41.997Z,5.15
2022-08-22T10:07:14.891Z,4.03
2022-08-22T10:09:54.921Z,5.93
2022-08-22T10:12:36.221Z,5.10
2022-08-22T10:15:19.056Z,4.97
2022-08-22T10:18:14.346Z,4.30
2022-08-22T10:20:55.308Z,3.90
2022-08-22T10:23:29.642Z,5.18
2022-08-22T10:29:52.341Z,4.65
2022-08-22T10:32:31.631Z,3.58
2022-08-22T10:38:06.423Z,3.15
2022-08-22T10:40:42.202Z,4.47
2022-08-22T10:43:13.592Z,4.38
2022-08-22T10:45:46.864Z,4.20
2022-08-22T10:48:27.936Z,6.63
2022-08-22T10:51:08.672Z,5.43
2022-08-22T10:54:29.394Z,3.10
2022-08-22T10:57:12.124Z,2.60
2022-08-22T10:59:46.629Z,4.70
2022-08-22T11:02:33.481Z,3.50
2022-08-22T11:05:07.279Z,4.10
2022-08-22T11:07:48.605Z,3.15
2022-08-22T11:10:21.246Z,2.97
2022-08-22T11:13:14.421Z,3.03
2022-08-22T11:15:58.452Z,4.25
2022-08-22T11:22:00.707Z,4.28
2022-08-22T11:24:35.275Z,4.38
2022-08-22T11:27:07.369Z,4.82
2022-08-22T11:30:07.103Z,2.40
2022-08-22T11:32:38.260Z,3.13
2022-08-22T11:35:13.512Z,3.90
2022-08-22T11:37:45.232Z,6.15
2022-08-22T11:40:28.344Z,5.32
2022-08-22T11:43:04.891Z,4.55
2022-08-22T11:45:39.005Z,3.38
2022-08-22T11:48:37.198Z,4.47
2022-08-22T11:57:20.680Z,5.03
2022-08-22T12:06:49.716Z,2.80
2022-08-22T12:09:51.457Z,2.40
2022-08-22T12:12:49.218Z,3.80
2022-08-22T12:15:24.397Z,4.03
2022-08-22T12:18:21.153Z,3.55
2022-08-22T12:21:09.592Z,3.70
2022-08-22T12:24:19.253Z,3.78
2022-08-22T12:26:59.301Z,4.60
2022-08-22T12:29:47.174Z,4.72
2022-08-22T12:38:29.268Z,3.45
2022-08-22T12:50:31.571Z,3.97
2022-08-22T12:53:52.480Z,4.97
2022-08-22T12:59:35.584Z,2.25
2022-08-22T13:02:18.926Z,4.45
2022-08-22T13:04:58.572Z,3.20
2022-08-22T13:07:37.490Z,4.10
2022-08-22T13:12:54.981Z,1.92
2022-08-22T13:16:03.119Z,2.75
2022-08-22T13:18:44.728Z,1.88
2022-08-22T13:21:15.313Z,3.35
2022-08-22T13:24:10.469Z,2.88
2022-08-22T13:26:49.505Z,3.17
2022-08-22T13:29:39.614Z,3.17
2022-08-22T13:32:44.389Z,4.30
2022-08-22T13:35:26.716Z,3.60
2022-08-22T13:38:13.937Z,3.88
2022-08-22T13:40:46.584Z,2.08
2022-08-22T13:43:22.097Z,4.10
2022-08-22T13:46:01.713Z,4.95
2022-08-22T13:51:28.847Z,3.25
2022-08-22T13:54:00.757Z,5.45
2022-08-22T13:56:50.515Z,2.92
2022-08-22T13:59:56.872Z,6.38
2022-08-22T14:05:30.177Z,4.05
2022-08-22T14:08:16.217Z,3.38
2022-08-22T14:10:55.230Z,5.30
2022-08-22T14:16:11.502Z,3.80
2022-08-22T14:18:48.996Z,4.30
2022-08-22T14:21:39.965Z,5.18
2022-08-22T14:24:26.908Z,2.60
2022-08-22T14:27:26.905Z,4.35
2022-08-22T14:30:01.370Z,4.05
2022-08-22T14:32:43.111Z,3.13
2022-08-22T14:35:34.707Z,4.35
2022-08-22T14:38:35.714Z,4.13
2022-08-22T14:41:56.403Z,2.42
2022-08-22T14:44:25.840Z,4.13
2022-08-22T14:46:56.800Z,2.05
2022-08-22T14:49:50.095Z,2.83
2022-08-22T14:52:37.680Z,3.38
2022-08-22T14:55:18.164Z,3.80
2022-08-22T14:58:15.253Z,4.35
2022-08-22T15:00:46.636Z,4.32
2022-08-22T15:03:25.828Z,3.58
2022-08-22T15:05:57.276Z,2.92
2022-08-22T15:08:31.324Z,2.83
2022-08-22T15:11:22.454Z,2.50
2022-08-22T15:14:01.429Z,2.08
2022-08-22T15:16:40.387Z,4.30
2022-08-22T15:19:33.407Z,2.63
2022-08-22T15:22:13.767Z,3.85
2022-08-22T15:25:08.812Z,2.83
2022-08-22T15:31:08.687Z,3.42
2022-08-22T15:33:43.436Z,3.60
2022-08-22T15:36:24.850Z,2.65
2022-08-22T15:38:55.530Z,3.53
2022-08-22T15:41:36.589Z,3.45
2022-08-22T15:44:06.838Z,2.30
2022-08-22T15:46:41.404Z,2.72
2022-08-22T15:49:20.236Z,2.85
2022-08-22T15:52:14.333Z,2.58
2022-08-22T15:54:53.792Z,3.03
2022-08-22T15:57:36.184Z,2.17
2022-08-22T16:00:24.485Z,3.97
2022-08-22T16:03:06.865Z,3.80
2022-08-22T16:05:58.900Z,4.05
2022-08-22T16:08:44.412Z,4.53
2022-08-22T16:11:32.260Z,2.80
2022-08-22T16:14:24.295Z,2.85
2022-08-22T16:16:52.757Z,4.05
2022-08-22T16:19:24.074Z,1.58
2022-08-22T16:21:54.201Z,3.45
2022-08-22T16:24:23.825Z,3.65
2022-08-22T16:26:51.364Z,2.30
2022-08-22T16:32:09.877Z,3.90
2022-08-22T16:34:36.617Z,2.83
2022-08-22T16:37:03.376Z,2.47
2022-08-22T16:39:42.791Z,1.77
2022-08-22T16:44:43.991Z,4.22
2022-08-22T16:47:19.039Z,3.05
2022-08-22T16:49:51.893Z,4.35
2022-08-22T16:52:24.775Z,3.00
2022-08-22T16:57:54.441Z,3.58
2022-08-22T17:03:55.298Z,2.42
2022-08-22T17:16:20.307Z,3.15
2022-08-22T17:21:53.534Z,2.92
2022-08-22T17:24:33.521Z,3.63
2022-08-22T17:27:20.720Z,3.67
2022-08-22T17:33:00.035Z,3.55
2022-08-22T17:36:27.213Z,2.53
2022-08-22T17:42:38.422Z,2.67
2022-08-22T17:48:18.773Z,3.33
2022-08-22T17:50:57.707Z,2.92
2022-08-22T17:56:29.433Z,4.03
2022-08-22T17:59:13.330Z,1.85
2022-08-22T18:01:46.269Z,2.40
2022-08-22T18:04:40.438Z,3.05
2022-08-22T18:07:14.980Z,2.78
2022-08-22T18:10:15.060Z,2.97
2022-08-22T18:13:06.666Z,2.55
2022-08-22T18:15:34.096Z,2.42
2022-08-22T18:18:37.635Z,3.80
2022-08-22T18:21:14.946Z,3.88
2022-08-22T18:23:45.055Z,2.72
2022-08-22T18:26:24.282Z,4.07
2022-08-22T18:28:59.636Z,6.07
2022-08-22T18:31:38.697Z,4.75
2022-08-22T18:34:26.212Z,7.68
2022-08-22T18:39:59.866Z,6.80
2022-08-22T18:42:47.979Z,9.98
2022-08-22T18:45:44.121Z,11.05
2022-08-22T18:48:27.067Z,9.82
2022-08-22T18:51:13.765Z,6.88
2022-08-22T18:53:46.950Z,9.80
2022-08-22T18:56:38.266Z,13.82
2022-08-22T18:59:40.844Z,6.13
2022-08-22T19:02:26.507Z,5.15
2022-08-22T19:04:59.082Z,4.93
2022-08-22T19:07:48.178Z,5.10
2022-08-22T19:12:58.871Z,3.53
2022-08-22T19:15:36.252Z,4.80
2022-08-22T19:18:15.278Z,2.95
2022-08-22T19:21:00.962Z,5.45
2022-08-22T19:23:43.529Z,3.35
2022-08-22T19:26:28.821Z,3.75
2022-08-22T19:29:05.763Z,5.82
2022-08-22T19:34:30.824Z,4.03
2022-08-22T19:37:32.162Z,4.75
2022-08-22T19:40:10.688Z,3.00
2022-08-22T19:42:44.062Z,3.92
2022-08-22T19:45:22.952Z,4.60
2022-08-22T19:47:59.729Z,4.75
2022-08-22T19:50:33.008Z,3.60
2022-08-22T19:56:31.026Z,7.75
2022-08-22T19:59:21.099Z,4.55
2022-08-22T20:02:07.282Z,3.53
2022-08-22T20:04:49.067Z,3.65
2022-08-22T20:07:35.975Z,7.68
2022-08-22T20:10:43.946Z,6.60
2022-08-22T20:13:20.228Z,7.07
2022-08-22T20:16:11.990Z,6.75
2022-08-22T20:19:07.116Z,5.85
2022-08-22T20:22:04.137Z,7.45
2022-08-22T20:24:56.348Z,6.90
2022-08-22T20:27:31.699Z,8.35
2022-08-22T20:30:04.524Z,5.68
2022-08-22T20:32:37.817Z,7.55
2022-08-22T20:35:05.511Z,5.53
2022-08-22T20:38:04.825Z,8.10
2022-08-22T20:40:54.785Z,7.53
2022-08-22T20:43:42.765Z,10.27
2022-08-22T20:46:12.550Z,4.65
2022-08-22T20:51:15.712Z,7.28
2022-08-22T20:53:42.747Z,9.77
2022-08-22T20:56:09.637Z,8.10
2022-08-22T20:58:39.775Z,12.38
2022-08-22T21:01:09.500Z,8.43
2022-08-22T21:03:48.064Z,7.88
2022-08-22T21:06:30.018Z,7.47
2022-08-22T21:09:33.571Z,6.05
2022-08-22T21:12:00.820Z,9.55
2022-08-22T21:14:32.771Z,9.98
2022-08-22T21:17:29.167Z,11.40
2022-08-22T21:20:30.348Z,10.55
2022-08-22T21:23:02.938Z,5.10
2022-08-22T21:25:30.381Z,11.25
2022-08-22T21:27:57.339Z,12.82
2022-08-22T21:30:26.637Z,7.60
2022-08-22T21:32:56.172Z,13.30
2022-08-22T21:35:27.456Z,9.23
2022-08-22T21:37:54.795Z,9.82
2022-08-22T21:40:23.828Z,10.27
2022-08-22T21:43:12.005Z,9.60
2022-08-22T21:45:38.754Z,5.93
2022-08-22T21:48:30.300Z,12.02
2022-08-22T21:50:57.055Z,9.57
2022-08-22T21:53:28.450Z,7.50
2022-08-22T21:56:13.710Z,7.38
2022-08-22T22:01:27.969Z,8.30
2022-08-22T22:03:54.946Z,8.20
2022-08-22T22:06:21.695Z,7.50
2022-08-22T22:08:49.024Z,7.63
2022-08-22T22:11:16.316Z,9.45
2022-08-22T22:13:43.948Z,12.10
2022-08-22T22:16:12.382Z,8.70
2022-08-22T22:18:40.512Z,13.43
2022-08-22T22:21:08.539Z,12.73
2022-08-22T22:23:35.573Z,11.70
2022-08-22T22:26:04.635Z,13.55
2022-08-22T22:28:34.441Z,7.60
2022-08-22T22:31:01.423Z,11.73
2022-08-22T22:33:31.483Z,10.23
2022-08-22T22:36:01.117Z,9.10
2022-08-22T22:38:27.893Z,7.25
2022-08-22T22:40:54.685Z,8.40
2022-08-22T22:43:21.468Z,9.07
2022-08-22T22:45:48.521Z,7.93
2022-08-22T22:48:18.149Z,6.57
2022-08-22T22:50:52.153Z,7.15
2022-08-22T22:53:20.033Z,7.57
2022-08-22T22:56:00.039Z,6.80
2022-08-22T22:58:27.839Z,5.13
2022-08-22T23:00:55.613Z,8.00
2022-08-22T23:03:22.411Z,5.75
2022-08-22T23:05:49.204Z,5.82
2022-08-22T23:08:16.053Z,5.40
2022-08-22T23:10:42.885Z,7.13
2022-08-22T23:13:09.943Z,5.80
2022-08-22T23:15:37.285Z,7.45
2022-08-22T23:18:04.302Z,6.85
2022-08-22T23:20:31.229Z,6.00
2022-08-22T23:22:59.513Z,5.07
2022-08-22T23:25:26.560Z,5.80
2022-08-22T23:27:53.520Z,5.20
2022-08-22T23:30:21.433Z,5.25
2022-08-22T23:32:48.182Z,6.97
2022-08-22T23:35:14.987Z,5.53
2022-08-22T23:37:41.809Z,3.42
2022-08-22T23:40:09.637Z,5.07
2022-08-22T23:42:36.510Z,5.15
2022-08-22T23:45:04.035Z,4.88
2022-08-22T23:47:30.822Z,5.88
2022-08-22T23:49:57.581Z,4.43
2022-08-22T23:52:24.857Z,4.45
2022-08-22T23:54:55.493Z,5.63
2022-08-22T23:57:27.434Z,3.67
2022-08-22T23:59:57.684Z,5.13
